Cape Hunter — XCAS1 — position and weather

sailwx.info

Track history (hours):
 
Tides and Currents Weather Stations Pressure Air Temp Water Temp Dewpoint Dewpoint Depression Visibility Wind Speed Wind Dir Waves Ship Positions

Cape Hunter

Last reported at 2016-Jun-24 15:09 UTC. Time now 2016-Jun-25 23:22 UTC.
Position N 18°46' W 092°03'.

; draft 3.8 m.

MMSI: 345070095.

Date/timePositionNaut miles runAvg speedWind from/ knotsBaromVisibWave heightAir tempDewpointWater temp
2016-Jun-24 15:09N 18°46' W 092°03'4 6.5
2016-Jun-24 14:33N 18°46' W 091°59'5 5.0
2016-Jun-24 13:33N 18°43' W 091°54'4 3.8
2016-Jun-24 12:33N 18°39' W 091°54'3 3.1
2016-Jun-24 11:33N 18°39' W 091°51'0 0.1
2016-Jun-24 10:33N 18°39' W 091°51'0 0.0
2016-Jun-24 09:33N 18°39' W 091°51'0 0.0
2016-Jun-24 08:33N 18°39' W 091°51'0 0.0
2016-Jun-24 07:33N 18°39' W 091°51'0 0.0
2016-Jun-24 04:33N 18°39' W 091°51'0 0.0
2016-Jun-24 03:33N 18°39' W 091°51'0 0.0
2016-Jun-24 02:33N 18°39' W 091°51'0 0.0
2016-Jun-24 01:33N 18°39' W 091°51'0 0.0
2016-Jun-24 00:32N 18°39' W 091°51'1 0.5
2016-Jun-23 23:33N 18°39' W 091°51'0 0.0
2016-Jun-23 22:33N 18°39' W 091°51'0 0.0
2016-Jun-23 21:33N 18°39' W 091°51'0 0.0
2016-Jun-23 20:33N 18°39' W 091°51'0 0.0
2016-Jun-23 19:33N 18°39' W 091°51'0 0.0
2016-Jun-23 18:33N 18°39' W 091°51'0 0.5
2016-Jun-23 17:33N 18°38' W 091°51'0 0.4
2016-Jun-23 16:33N 18°38' W 091°51'0 0.0
2016-Jun-23 15:33N 18°38' W 091°51'0 0.0
2016-Jun-23 14:33N 18°38' W 091°51'1 1.0
2016-Jun-23 13:33N 18°39' W 091°51'0 0.0
2016-Jun-23 12:33N 18°39' W 091°51'2 2.1
2016-Jun-23 11:33N 18°39' W 091°53'6 6.1
2016-Jun-23 10:33N 18°45' W 091°54'7 7.0
2016-Jun-23 09:33N 18°49' W 091°48'7 6.6
2016-Jun-23 08:33N 18°53' W 091°42'0 0.0
2016-Jun-23 07:33N 18°53' W 091°42'0 0.2
2016-Jun-23 05:33N 18°53' W 091°42'1 1.4
2016-Jun-23 04:33N 18°53' W 091°43'0 0.0
2016-Jun-23 03:33N 18°53' W 091°43'0 0.3
2016-Jun-23 02:30N 18°53' W 091°43'0 0.3
2016-Jun-23 01:32N 18°53' W 091°43'3 2.8
2016-Jun-23 00:24N 18°55' W 091°46'3 3.6
2016-Jun-22 23:33N 18°53' W 091°43'5 4.9
2016-Jun-22 22:33N 18°50' W 091°47'7 6.7
2016-Jun-22 21:33N 18°46' W 091°52'6 5.5
2016-Jun-22 20:33N 18°40' W 091°54'4 3.6
2016-Jun-22 19:33N 18°39' W 091°51'0 0.0
2016-Jun-22 18:33N 18°39' W 091°51'0 0.0
2016-Jun-22 17:33N 18°39' W 091°51'0 0.0
2016-Jun-22 16:33N 18°39' W 091°51'0 0.0
2016-Jun-22 15:33N 18°39' W 091°51'0 0.0
2016-Jun-22 14:33N 18°39' W 091°51'0 0.0
2016-Jun-22 13:33N 18°39' W 091°51'0 0.0
2016-Jun-22 12:33N 18°39' W 091°51'0 0.3
2016-Jun-22 11:33N 18°39' W 091°51'0 0.0
2016-Jun-22 10:33N 18°39' W 091°50'0 0.0
2016-Jun-22 09:33N 18°39' W 091°50'0 0.0
2016-Jun-22 08:33N 18°39' W 091°50'0 0.0
2016-Jun-22 07:33N 18°39' W 091°50'1 1.0
2016-Jun-22 06:34N 18°38' W 091°51'0 0.0
2016-Jun-22 05:33N 18°38' W 091°51'0 0.0
2016-Jun-22 04:33N 18°38' W 091°51'0 0.0
2016-Jun-22 03:33N 18°38' W 091°51'0 0.0
2016-Jun-22 02:33N 18°38' W 091°51'0 0.0
2016-Jun-22 01:33N 18°38' W 091°51'0 0.0
2016-Jun-22 00:33N 18°38' W 091°51'0 0.0
2016-Jun-21 23:33N 18°38' W 091°51'0 0.1
2016-Jun-21 22:33N 18°38' W 091°51'0 0.0
2016-Jun-21 21:33N 18°38' W 091°51'0 0.0
2016-Jun-21 20:33N 18°38' W 091°51'0 0.0
2016-Jun-21 19:33N 18°38' W 091°51'0 0.0
2016-Jun-21 18:33N 18°38' W 091°51'0 0.0
2016-Jun-21 17:33N 18°38' W 091°51'0 0.0
2016-Jun-21 16:33N 18°38' W 091°51'0 0.0
2016-Jun-21 15:33N 18°38' W 091°51'0 0.0
2016-Jun-21 14:33N 18°38' W 091°51'0 0.0
2016-Jun-21 13:33N 18°38' W 091°51'0 0.0
2016-Jun-21 12:33N 18°38' W 091°51'0 0.0
2016-Jun-21 11:33N 18°38' W 091°51'0 0.0
2016-Jun-21 10:33N 18°38' W 091°51'0 0.0
2016-Jun-21 09:33N 18°38' W 091°51'0 0.0
2016-Jun-21 08:33N 18°38' W 091°51'0 0.0
2016-Jun-21 07:33N 18°38' W 091°51'0 0.0
2016-Jun-21 05:33N 18°38' W 091°51'0 0.0
2016-Jun-21 04:33N 18°38' W 091°51'0 0.0
2016-Jun-21 03:33N 18°38' W 091°51'0 0.0
2016-Jun-21 02:33N 18°38' W 091°51'0 0.0
2016-Jun-21 01:33N 18°38' W 091°51'0 0.0
2016-Jun-21 00:33N 18°38' W 091°51'0 0.0
2016-Jun-20 23:33N 18°38' W 091°51'0 0.1
2016-Jun-20 22:33N 18°38' W 091°51'0 0.1
2016-Jun-20 21:33N 18°38' W 091°51'0 0.0
2016-Jun-20 20:33N 18°38' W 091°51'0 0.0
2016-Jun-20 19:33N 18°38' W 091°51'0 0.0
2016-Jun-20 18:33N 18°38' W 091°51'0 0.0
2016-Jun-20 17:33N 18°38' W 091°51'0 0.0
2016-Jun-20 16:33N 18°38' W 091°51'0 0.0
2016-Jun-20 15:33N 18°38' W 091°51'0 0.0
2016-Jun-20 14:34N 18°38' W 091°51'0 0.0
2016-Jun-20 13:33N 18°38' W 091°51'0 0.0
2016-Jun-20 12:33N 18°38' W 091°51'0 0.0
2016-Jun-20 11:33N 18°38' W 091°51'0 0.0
2016-Jun-20 10:33N 18°38' W 091°51'0 0.0
2016-Jun-20 09:33N 18°38' W 091°51'0 0.0
2016-Jun-20 08:33N 18°38' W 091°51'0 0.0
2016-Jun-20 07:33N 18°38' W 091°51'0 0.0
2016-Jun-20 06:33N 18°38' W 091°51'0 0.0
2016-Jun-20 05:33N 18°38' W 091°51'0 0.0
2016-Jun-20 04:33N 18°38' W 091°51'0 0.0
2016-Jun-20 03:33N 18°38' W 091°51'0 0.0
2016-Jun-20 02:33N 18°38' W 091°51'0 0.0
2016-Jun-20 01:33N 18°38' W 091°51'0 0.0
2016-Jun-20 00:33N 18°38' W 091°51'0 0.0
2016-Jun-19 23:33N 18°38' W 091°51'0 0.0
2016-Jun-19 22:33N 18°38' W 091°51'0 0.0
2016-Jun-19 21:33N 18°38' W 091°51'0 0.0
2016-Jun-19 20:33N 18°38' W 091°51'0 0.0
2016-Jun-19 19:33N 18°38' W 091°51'0 0.0
2016-Jun-19 18:33N 18°38' W 091°51'0 0.0
2016-Jun-19 17:33N 18°38' W 091°51'0 0.0
2016-Jun-19 16:33N 18°38' W 091°51'0 0.0
2016-Jun-19 15:33N 18°38' W 091°51'0 0.0
2016-Jun-19 14:33N 18°38' W 091°51'0 0.0
2016-Jun-19 13:33N 18°38' W 091°51'0 0.0
2016-Jun-19 12:33N 18°38' W 091°51'0 0.0
2016-Jun-19 11:33N 18°38' W 091°51'0 0.0
2016-Jun-19 10:33N 18°38' W 091°51'0 0.0
2016-Jun-19 09:33N 18°38' W 091°51'0 0.0
2016-Jun-19 08:33N 18°38' W 091°51'0 0.0
2016-Jun-19 07:33N 18°38' W 091°51'0 0.0
2016-Jun-19 06:33N 18°38' W 091°51'0 0.0
2016-Jun-19 05:33N 18°38' W 091°51'0 0.0
2016-Jun-19 04:33N 18°38' W 091°51'1 1.2
2016-Jun-19 03:33N 18°39' W 091°51'3 2.9
2016-Jun-19 02:33N 18°39' W 091°54'5 4.8
2016-Jun-19 01:33N 18°44' W 091°55'40 0.9
2016-Jun-17 02:26N 18°46' W 092°37'7 7.9
2016-Jun-17 01:33N 18°46' W 092°29'8 7.7
2016-Jun-17 00:33N 18°46' W 092°21'7 7.0
2016-Jun-16 23:33N 18°46' W 092°14'15 6.9
2016-Jun-16 21:28N 18°46' W 091°59'5 5.8
2016-Jun-16 20:33N 18°43' W 091°54'5 5.1
2016-Jun-16 19:33N 18°38' W 091°52'1 1.1
2016-Jun-16 18:33N 18°38' W 091°51'0 0.0
2016-Jun-16 17:33N 18°38' W 091°51'0 0.0
2016-Jun-16 16:33N 18°38' W 091°51'0 0.0
2016-Jun-16 15:33N 18°38' W 091°51'  
Track history (hours):
 
Tides and Currents Weather Stations Pressure Air Temp Water Temp Dewpoint Dewpoint Depression Visibility Wind Speed Wind Dir Waves Ship Positions

Cape Hunter

Last reported at 2016-Jun-24 15:09 UTC. Time now 2016-Jun-25 23:22 UTC.
Position N 18°46' W 092°03'.

; draft 3.8 m.

MMSI: 345070095.

Date/timePositionNaut miles runAvg speedWind from/ knotsBaromVisibWave heightAir tempDewpointWater temp
2016-Jun-24 15:09N 18°46' W 092°03'4 6.5
2016-Jun-24 14:33N 18°46' W 091°59'5 5.0
2016-Jun-24 13:33N 18°43' W 091°54'4 3.8
2016-Jun-24 12:33N 18°39' W 091°54'3 3.1
2016-Jun-24 11:33N 18°39' W 091°51'0 0.1
2016-Jun-24 10:33N 18°39' W 091°51'0 0.0
2016-Jun-24 09:33N 18°39' W 091°51'0 0.0
2016-Jun-24 08:33N 18°39' W 091°51'0 0.0
2016-Jun-24 07:33N 18°39' W 091°51'0 0.0
2016-Jun-24 04:33N 18°39' W 091°51'0 0.0
2016-Jun-24 03:33N 18°39' W 091°51'0 0.0
2016-Jun-24 02:33N 18°39' W 091°51'0 0.0
2016-Jun-24 01:33N 18°39' W 091°51'0 0.0
2016-Jun-24 00:32N 18°39' W 091°51'1 0.5
2016-Jun-23 23:33N 18°39' W 091°51'0 0.0
2016-Jun-23 22:33N 18°39' W 091°51'0 0.0
2016-Jun-23 21:33N 18°39' W 091°51'0 0.0
2016-Jun-23 20:33N 18°39' W 091°51'0 0.0
2016-Jun-23 19:33N 18°39' W 091°51'0 0.0
2016-Jun-23 18:33N 18°39' W 091°51'0 0.5
2016-Jun-23 17:33N 18°38' W 091°51'0 0.4
2016-Jun-23 16:33N 18°38' W 091°51'0 0.0
2016-Jun-23 15:33N 18°38' W 091°51'0 0.0
2016-Jun-23 14:33N 18°38' W 091°51'1 1.0
2016-Jun-23 13:33N 18°39' W 091°51'0 0.0
2016-Jun-23 12:33N 18°39' W 091°51'2 2.1
2016-Jun-23 11:33N 18°39' W 091°53'6 6.1
2016-Jun-23 10:33N 18°45' W 091°54'7 7.0
2016-Jun-23 09:33N 18°49' W 091°48'7 6.6
2016-Jun-23 08:33N 18°53' W 091°42'0 0.0
2016-Jun-23 07:33N 18°53' W 091°42'0 0.2
2016-Jun-23 05:33N 18°53' W 091°42'1 1.4
2016-Jun-23 04:33N 18°53' W 091°43'0 0.0
2016-Jun-23 03:33N 18°53' W 091°43'0 0.3
2016-Jun-23 02:30N 18°53' W 091°43'0 0.3
2016-Jun-23 01:32N 18°53' W 091°43'3 2.8
2016-Jun-23 00:24N 18°55' W 091°46'3 3.6
2016-Jun-22 23:33N 18°53' W 091°43'5 4.9
2016-Jun-22 22:33N 18°50' W 091°47'7 6.7
2016-Jun-22 21:33N 18°46' W 091°52'6 5.5
2016-Jun-22 20:33N 18°40' W 091°54'4 3.6
2016-Jun-22 19:33N 18°39' W 091°51'0 0.0
2016-Jun-22 18:33N 18°39' W 091°51'0 0.0
2016-Jun-22 17:33N 18°39' W 091°51'0 0.0
2016-Jun-22 16:33N 18°39' W 091°51'0 0.0
2016-Jun-22 15:33N 18°39' W 091°51'0 0.0
2016-Jun-22 14:33N 18°39' W 091°51'0 0.0
2016-Jun-22 13:33N 18°39' W 091°51'0 0.0
2016-Jun-22 12:33N 18°39' W 091°51'0 0.3
2016-Jun-22 11:33N 18°39' W 091°51'0 0.0
2016-Jun-22 10:33N 18°39' W 091°50'0 0.0
2016-Jun-22 09:33N 18°39' W 091°50'0 0.0
2016-Jun-22 08:33N 18°39' W 091°50'0 0.0
2016-Jun-22 07:33N 18°39' W 091°50'1 1.0
2016-Jun-22 06:34N 18°38' W 091°51'0 0.0
2016-Jun-22 05:33N 18°38' W 091°51'0 0.0
2016-Jun-22 04:33N 18°38' W 091°51'0 0.0
2016-Jun-22 03:33N 18°38' W 091°51'0 0.0
2016-Jun-22 02:33N 18°38' W 091°51'0 0.0
2016-Jun-22 01:33N 18°38' W 091°51'0 0.0
2016-Jun-22 00:33N 18°38' W 091°51'0 0.0
2016-Jun-21 23:33N 18°38' W 091°51'0 0.1
2016-Jun-21 22:33N 18°38' W 091°51'0 0.0
2016-Jun-21 21:33N 18°38' W 091°51'0 0.0
2016-Jun-21 20:33N 18°38' W 091°51'0 0.0
2016-Jun-21 19:33N 18°38' W 091°51'0 0.0
2016-Jun-21 18:33N 18°38' W 091°51'0 0.0
2016-Jun-21 17:33N 18°38' W 091°51'0 0.0
2016-Jun-21 16:33N 18°38' W 091°51'0 0.0
2016-Jun-21 15:33N 18°38' W 091°51'0 0.0
2016-Jun-21 14:33N 18°38' W 091°51'0 0.0
2016-Jun-21 13:33N 18°38' W 091°51'0 0.0
2016-Jun-21 12:33N 18°38' W 091°51'0 0.0
2016-Jun-21 11:33N 18°38' W 091°51'0 0.0
2016-Jun-21 10:33N 18°38' W 091°51'0 0.0
2016-Jun-21 09:33N 18°38' W 091°51'0 0.0
2016-Jun-21 08:33N 18°38' W 091°51'0 0.0
2016-Jun-21 07:33N 18°38' W 091°51'0 0.0
2016-Jun-21 05:33N 18°38' W 091°51'0 0.0
2016-Jun-21 04:33N 18°38' W 091°51'0 0.0
2016-Jun-21 03:33N 18°38' W 091°51'0 0.0
2016-Jun-21 02:33N 18°38' W 091°51'0 0.0
2016-Jun-21 01:33N 18°38' W 091°51'0 0.0
2016-Jun-21 00:33N 18°38' W 091°51'0 0.0
2016-Jun-20 23:33N 18°38' W 091°51'0 0.1
2016-Jun-20 22:33N 18°38' W 091°51'0 0.1
2016-Jun-20 21:33N 18°38' W 091°51'0 0.0
2016-Jun-20 20:33N 18°38' W 091°51'0 0.0
2016-Jun-20 19:33N 18°38' W 091°51'0 0.0
2016-Jun-20 18:33N 18°38' W 091°51'0 0.0
2016-Jun-20 17:33N 18°38' W 091°51'0 0.0
2016-Jun-20 16:33N 18°38' W 091°51'0 0.0
2016-Jun-20 15:33N 18°38' W 091°51'0 0.0
2016-Jun-20 14:34N 18°38' W 091°51'0 0.0
2016-Jun-20 13:33N 18°38' W 091°51'0 0.0
2016-Jun-20 12:33N 18°38' W 091°51'0 0.0
2016-Jun-20 11:33N 18°38' W 091°51'0 0.0
2016-Jun-20 10:33N 18°38' W 091°51'0 0.0
2016-Jun-20 09:33N 18°38' W 091°51'0 0.0
2016-Jun-20 08:33N 18°38' W 091°51'0 0.0
2016-Jun-20 07:33N 18°38' W 091°51'0 0.0
2016-Jun-20 06:33N 18°38' W 091°51'0 0.0
2016-Jun-20 05:33N 18°38' W 091°51'0 0.0
2016-Jun-20 04:33N 18°38' W 091°51'0 0.0
2016-Jun-20 03:33N 18°38' W 091°51'0 0.0
2016-Jun-20 02:33N 18°38' W 091°51'0 0.0
2016-Jun-20 01:33N 18°38' W 091°51'0 0.0
2016-Jun-20 00:33N 18°38' W 091°51'0 0.0
2016-Jun-19 23:33N 18°38' W 091°51'0 0.0
2016-Jun-19 22:33N 18°38' W 091°51'0 0.0
2016-Jun-19 21:33N 18°38' W 091°51'0 0.0
2016-Jun-19 20:33N 18°38' W 091°51'0 0.0
2016-Jun-19 19:33N 18°38' W 091°51'0 0.0
2016-Jun-19 18:33N 18°38' W 091°51'0 0.0
2016-Jun-19 17:33N 18°38' W 091°51'0 0.0
2016-Jun-19 16:33N 18°38' W 091°51'0 0.0
2016-Jun-19 15:33N 18°38' W 091°51'0 0.0
2016-Jun-19 14:33N 18°38' W 091°51'0 0.0
2016-Jun-19 13:33N 18°38' W 091°51'0 0.0
2016-Jun-19 12:33N 18°38' W 091°51'0 0.0
2016-Jun-19 11:33N 18°38' W 091°51'0 0.0
2016-Jun-19 10:33N 18°38' W 091°51'0 0.0
2016-Jun-19 09:33N 18°38' W 091°51'0 0.0
2016-Jun-19 08:33N 18°38' W 091°51'0 0.0
2016-Jun-19 07:33N 18°38' W 091°51'0 0.0
2016-Jun-19 06:33N 18°38' W 091°51'0 0.0
2016-Jun-19 05:33N 18°38' W 091°51'0 0.0
2016-Jun-19 04:33N 18°38' W 091°51'1 1.2
2016-Jun-19 03:33N 18°39' W 091°51'3 2.9
2016-Jun-19 02:33N 18°39' W 091°54'5 4.8
2016-Jun-19 01:33N 18°44' W 091°55'40 0.9
2016-Jun-17 02:26N 18°46' W 092°37'7 7.9
2016-Jun-17 01:33N 18°46' W 092°29'8 7.7
2016-Jun-17 00:33N 18°46' W 092°21'7 7.0
2016-Jun-16 23:33N 18°46' W 092°14'15 6.9
2016-Jun-16 21:28N 18°46' W 091°59'5 5.8
2016-Jun-16 20:33N 18°43' W 091°54'5 5.1
2016-Jun-16 19:33N 18°38' W 091°52'1 1.1
2016-Jun-16 18:33N 18°38' W 091°51'0 0.0
2016-Jun-16 17:33N 18°38' W 091°51'0 0.0
2016-Jun-16 16:33N 18°38' W 091°51'0 0.0
2016-Jun-16 15:33N 18°38' W 091°51'  

Dump ship's entire track history